Time;durP1;ratioP1;P1;durP2;ratioP2;P2;SDS_P1;SDS_P2;PMS_P1;PMS_P2;Temp;Humidity;BMP_temperature;BMP_pressure;BME280_temperature;BME280_humidity;BME280_pressure;Samples;Min_cycle;Max_cycle;Signal;HPM_P1;HPM_P2
2023/04/26 00:00:12;;;;;;;11.07;5.68;;;;;;;4.25;100.00;-18142.28;4973673;28;20031;-82
2023/04/26 00:02:38;;;;;;;10.43;5.03;;;;;;;4.24;100.00;-18142.13;4971602;28;20042;-83
2023/04/26 00:05:06;;;;;;;12.27;6.57;;;;;;;4.28;100.00;-18143.22;4976432;28;20046;-83
2023/04/26 00:07:32;;;;;;;12.50;5.82;;;;;;;4.26;100.00;-18142.56;4978733;28;20096;-83
2023/04/26 00:09:58;;;;;;;9.80;6.18;;;;;;;4.22;100.00;-18141.44;4972933;28;20074;-83
2023/04/26 00:12:23;;;;;;;11.60;6.03;;;;;;;4.21;100.00;-18141.31;4974581;28;20042;-83
2023/04/26 00:14:49;;;;;;;15.18;7.07;;;;;;;4.07;100.00;-18137.44;4972443;28;20042;-82
2023/04/26 00:17:14;;;;;;;10.73;6.60;;;;;;;4.05;100.00;-18136.88;4989858;28;20043;-82
2023/04/26 00:19:40;;;;;;;10.43;5.32;;;;;;;4.10;100.00;-18138.25;4973604;28;20126;-83
2023/04/26 00:22:07;;;;;;;11.68;5.85;;;;;;;4.10;100.00;-18138.25;4976334;28;20117;-83
2023/04/26 00:24:33;;;;;;;11.25;7.05;;;;;;;4.14;100.00;-18139.38;4974951;28;20129;-83
2023/04/26 00:26:59;;;;;;;8.48;4.82;;;;;;;4.11;100.00;-18138.53;4976325;28;20074;-83
2023/04/26 00:29:24;;;;;;;12.88;6.30;;;;;;;4.22;100.00;-18141.44;4976102;28;20118;-83
2023/04/26 00:31:50;;;;;;;12.23;6.70;;;;;;;4.13;100.00;-18138.97;4975959;28;20089;-83
2023/04/26 00:34:16;;;;;;;16.63;7.20;;;;;;;4.10;100.00;-18138.13;4975144;28;20062;-82
2023/04/26 00:36:41;;;;;;;11.30;6.28;;;;;;;3.95;100.00;-18134.13;4973887;28;21157;-82
2023/04/26 00:39:08;;;;;;;18.00;7.78;;;;;;;3.86;100.00;-18131.63;4978471;28;20030;-82
2023/04/26 00:41:33;;;;;;;12.52;6.65;;;;;;;3.89;100.00;-18132.47;4971321;28;20181;-83
2023/04/26 00:43:59;;;;;;;14.23;7.35;;;;;;;3.79;100.00;-18129.84;4974871;28;20102;-82
2023/04/26 00:46:25;;;;;;;15.25;6.15;;;;;;;3.80;100.00;-18130.13;4973552;28;20046;-82
2023/04/26 00:48:50;;;;;;;12.45;7.10;;;;;;;3.87;100.00;-18132.03;4976364;28;20047;-83
2023/04/26 00:51:16;;;;;;;12.15;7.55;;;;;;;3.83;100.00;-18131.09;4978360;28;20110;-83
2023/04/26 00:53:41;;;;;;;13.30;7.40;;;;;;;3.77;100.00;-18129.44;4979503;28;20125;-83
2023/04/26 00:56:08;;;;;;;13.82;7.35;;;;;;;3.78;100.00;-18129.56;4982019;28;20050;-83
2023/04/26 00:58:36;;;;;;;14.00;7.00;;;;;;;3.68;100.00;-18126.78;4980234;28;20782;-83
2023/04/26 01:01:01;;;;;;;16.85;7.05;;;;;;;3.57;100.00;-18123.91;4979478;28;20380;-83
2023/04/26 01:03:27;;;;;;;9.65;6.97;;;;;;;3.43;100.00;-18120.16;4976561;28;20130;-83
2023/04/26 01:05:52;;;;;;;12.52;7.85;;;;;;;3.24;100.00;-18115.06;4978693;28;20090;-82
2023/04/26 01:08:19;;;;;;;12.82;7.78;;;;;;;3.17;100.00;-18113.13;4977885;28;20121;-82
2023/04/26 01:10:47;;;;;;;11.38;7.53;;;;;;;3.07;100.00;-18110.50;4974941;28;20097;-83
2023/04/26 01:13:13;;;;;;;16.13;8.35;;;;;;;3.08;100.00;-18110.78;4977147;28;20038;-82
2023/04/26 01:15:45;;;;;;;14.80;8.77;;;;;;;2.92;100.00;-18106.34;4975677;28;20062;-82
2023/04/26 01:18:10;;;;;;;14.52;7.78;;;;;;;3.01;100.00;-18108.69;4979339;28;20035;-82
2023/04/26 01:20:35;;;;;;;16.58;7.53;;;;;;;3.01;100.00;-18108.69;4981877;28;20058;-83
2023/04/26 01:23:01;;;;;;;17.10;8.02;;;;;;;3.07;100.00;-18110.34;4972228;28;20046;-83
2023/04/26 01:25:27;;;;;;;12.95;8.40;;;;;;;3.14;100.00;-18112.28;4970376;28;20047;-83
2023/04/26 01:27:52;;;;;;;18.35;8.93;;;;;;;2.99;100.00;-18108.28;4975436;28;20038;-82
2023/04/26 01:30:18;;;;;;;13.75;8.10;;;;;;;2.99;100.00;-18108.28;4972962;28;20073;-82
2023/04/26 01:32:43;;;;;;;13.27;8.32;;;;;;;2.88;100.00;-18105.38;4970400;28;20131;-83
2023/04/26 01:35:08;;;;;;;17.88;8.32;;;;;;;2.84;100.00;-18104.25;4979838;28;20038;-82
2023/04/26 01:37:34;;;;;;;16.27;8.80;;;;;;;2.88;100.00;-18105.38;4969903;28;20598;-82
2023/04/26 01:39:59;;;;;;;16.80;8.75;;;;;;;2.82;100.00;-18103.72;4972194;28;20034;-82
2023/04/26 01:42:25;;;;;;;16.15;8.60;;;;;;;2.85;100.00;-18104.53;4975278;28;20435;-82
2023/04/26 01:44:50;;;;;;;16.38;8.98;;;;;;;2.83;100.00;-18104.00;4972293;28;20047;-82
2023/04/26 01:47:16;;;;;;;16.67;9.00;;;;;;;2.82;100.00;-18103.72;4976548;28;20116;-83
2023/04/26 01:49:41;;;;;;;12.95;7.95;;;;;;;2.74;100.00;-18101.38;4979176;28;20410;-82
2023/04/26 01:52:06;;;;;;;17.88;8.38;;;;;;;2.65;100.00;-18099.00;4976132;28;20522;-83
2023/04/26 01:54:32;;;;;;;17.67;9.10;;;;;;;2.87;100.00;-18104.97;4975524;28;20519;-82
2023/04/26 01:56:57;;;;;;;18.17;9.52;;;;;;;3.03;100.00;-18109.25;4977216;28;20060;-83
2023/04/26 01:59:22;;;;;;;15.02;9.93;;;;;;;3.05;100.00;-18109.94;4989733;28;20129;-83
2023/04/26 02:01:47;;;;;;;16.95;10.00;;;;;;;3.16;100.00;-18112.84;4975903;28;20058;-82
2023/04/26 02:04:13;;;;;;;21.85;10.30;;;;;;;3.19;100.00;-18113.66;4987738;28;20038;-82
2023/04/26 02:06:38;;;;;;;18.73;9.45;;;;;;;3.23;100.00;-18114.63;4992467;28;20447;-83
2023/04/26 02:09:04;;;;;;;18.77;9.02;;;;;;;3.23;100.00;-18114.63;4976721;28;20518;-82
2023/04/26 02:11:30;;;;;;;16.80;9.20;;;;;;;3.22;100.00;-18114.50;4975248;28;20046;-82
2023/04/26 02:13:55;;;;;;;19.08;9.63;;;;;;;3.31;100.00;-18116.84;4976465;28;20065;-82
2023/04/26 02:16:21;;;;;;;18.70;9.93;;;;;;;3.41;100.00;-18119.47;4977479;28;20047;-82
2023/04/26 02:18:48;;;;;;;16.13;9.77;;;;;;;3.21;100.00;-18114.22;4973408;28;20130;-82
2023/04/26 02:21:16;;;;;;;16.30;9.32;;;;;;;3.49;100.00;-18121.69;4976392;28;20131;-83
2023/04/26 02:23:41;;;;;;;18.98;8.68;;;;;;;3.38;100.00;-18118.91;4977909;28;20409;-82
2023/04/26 02:26:06;;;;;;;19.02;8.80;;;;;;;3.07;100.00;-18110.50;4991159;28;20046;-82
2023/04/26 02:28:32;;;;;;;18.27;10.15;;;;;;;3.14;100.00;-18112.28;4972860;28;20506;-82
2023/04/26 02:30:57;;;;;;;16.20;9.20;;;;;;;3.17;100.00;-18113.25;4975271;28;20054;-82
2023/04/26 02:33:22;;;;;;;16.92;9.20;;;;;;;3.18;100.00;-18113.38;4975126;28;20046;-82
2023/04/26 02:35:48;;;;;;;19.83;9.48;;;;;;;3.27;100.00;-18115.88;4975939;28;20122;-82
2023/04/26 02:38:13;;;;;;;16.88;8.55;;;;;;;3.21;100.00;-18114.22;4975790;28;20090;-82
2023/04/26 02:40:38;;;;;;;15.75;8.23;;;;;;;3.19;100.00;-18113.53;4974682;28;20043;-82
2023/04/26 02:43:04;;;;;;;20.30;8.98;;;;;;;3.27;100.00;-18115.75;4981158;28;20050;-82
2023/04/26 02:45:29;;;;;;;15.60;8.68;;;;;;;3.28;100.00;-18116.16;4971445;28;20524;-82
2023/04/26 02:47:55;;;;;;;14.75;9.40;;;;;;;3.26;100.00;-18115.59;4973063;28;20112;-82
2023/04/26 02:50:20;;;;;;;15.32;9.70;;;;;;;3.13;100.00;-18112.00;4982417;28;20046;-82
2023/04/26 02:52:45;;;;;;;15.45;8.88;;;;;;;3.16;100.00;-18112.97;4970381;28;20053;-81
2023/04/26 02:55:11;;;;;;;18.02;9.00;;;;;;;3.23;100.00;-18114.78;4974183;28;20479;-82
2023/04/26 02:57:36;;;;;;;17.17;9.50;;;;;;;3.16;100.00;-18112.84;4971388;28;20038;-82
2023/04/26 03:00:04;;;;;;;18.65;10.13;;;;;;;3.14;100.00;-18112.28;4976399;28;20122;-81
2023/04/26 03:02:30;;;;;;;23.75;10.20;;;;;;;3.26;100.00;-18115.59;4973874;28;20047;-81
2023/04/26 03:04:55;;;;;;;19.50;9.10;;;;;;;3.19;100.00;-18113.53;4979231;28;20101;-81
2023/04/26 03:07:21;;;;;;;20.73;9.95;;;;;;;2.96;100.00;-18107.31;4976047;28;20404;-81
2023/04/26 03:09:46;;;;;;;18.80;9.25;;;;;;;2.88;100.00;-18105.25;4970290;28;20062;-81
2023/04/26 03:12:11;;;;;;;17.20;9.82;;;;;;;2.91;100.00;-18106.19;4976990;28;20039;-82
2023/04/26 03:14:37;;;;;;;17.40;8.02;;;;;;;2.88;100.00;-18105.38;4974645;28;20442;-81
2023/04/26 03:17:02;;;;;;;19.80;9.60;;;;;;;2.91;100.00;-18106.19;4992497;28;20070;-82
2023/04/26 03:19:27;;;;;;;15.40;8.73;;;;;;;2.90;100.00;-18105.94;4976956;28;20039;-82
2023/04/26 03:21:54;;;;;;;15.32;10.25;;;;;;;2.92;100.00;-18106.47;4978138;28;20070;-82
2023/04/26 03:24:19;;;;;;;18.10;10.13;;;;;;;2.83;100.00;-18104.00;4972835;28;20038;-82
2023/04/26 03:26:45;;;;;;;18.17;9.77;;;;;;;2.91;100.00;-18106.19;4972476;28;20139;-81
2023/04/26 03:29:11;;;;;;;16.88;10.07;;;;;;;2.89;100.00;-18105.50;4973875;28;20489;-82
2023/04/26 03:31:37;;;;;;;20.77;10.70;;;;;;;2.88;100.00;-18105.38;4968593;28;20499;-81
2023/04/26 03:34:02;;;;;;;20.48;10.15;;;;;;;2.90;100.00;-18105.94;4977663;28;20121;-82
2023/04/26 03:36:28;;;;;;;17.63;10.00;;;;;;;2.94;100.00;-18106.91;4991819;28;20125;-82
2023/04/26 03:38:54;;;;;;;22.67;9.43;;;;;;;2.91;100.00;-18106.19;4973111;28;20039;-82
2023/04/26 03:41:19;;;;;;;17.95;9.70;;;;;;;2.87;100.00;-18104.97;4971342;28;20454;-81
2023/04/26 03:43:45;;;;;;;22.30;11.05;;;;;;;2.85;100.00;-18104.53;4974381;28;20081;-81
2023/04/26 03:46:11;;;;;;;17.17;10.20;;;;;;;2.85;100.00;-18104.53;4969219;28;20499;-81
2023/04/26 03:48:36;;;;;;;20.17;10.23;;;;;;;2.81;100.00;-18103.31;4974043;28;20042;-81
2023/04/26 03:51:02;;;;;;;22.25;9.85;;;;;;;2.84;100.00;-18104.25;4974501;28;20103;-81
2023/04/26 03:53:27;;;;;;;19.13;9.93;;;;;;;2.84;100.00;-18104.25;4972388;28;20085;-81
2023/04/26 03:55:53;;;;;;;20.23;11.52;;;;;;;2.78;100.00;-18102.59;4974479;28;20102;-81
2023/04/26 03:58:18;;;;;;;22.23;12.18;;;;;;;2.77;100.00;-18102.19;4974156;28;20043;-81
2023/04/26 04:00:44;;;;;;;24.15;11.38;;;;;;;2.65;100.00;-18099.16;4972067;28;20074;-81
2023/04/26 04:03:09;;;;;;;26.48;12.30;;;;;;;2.68;100.00;-18099.84;4974396;28;20050;-80
2023/04/26 04:05:35;;;;;;;21.13;11.18;;;;;;;2.64;100.00;-18098.72;4973897;28;20553;-80
2023/04/26 04:08:00;;;;;;;20.33;12.75;;;;;;;2.62;100.00;-18098.19;4990114;28;20158;-80
2023/04/26 04:10:26;;;;;;;24.70;10.73;;;;;;;2.49;100.00;-18094.88;4973544;28;20053;-80
2023/04/26 04:12:52;;;;;;;22.02;10.65;;;;;;;2.47;100.00;-18094.16;4973736;28;20074;-81
2023/04/26 04:15:18;;;;;;;25.60;12.80;;;;;;;2.41;100.00;-18092.66;4972772;28;20053;-81
2023/04/26 04:17:44;;;;;;;20.50;12.45;;;;;;;2.46;100.00;-18094.03;4969221;28;20046;-81
2023/04/26 04:20:10;;;;;;;20.52;13.07;;;;;;;2.42;100.00;-18092.78;4971142;28;20039;-81
2023/04/26 04:22:35;;;;;;;24.30;13.50;;;;;;;2.43;100.00;-18093.19;4970637;28;20549;-81
2023/04/26 04:25:03;;;;;;;27.20;14.15;;;;;;;2.49;100.00;-18094.88;4997291;23;20051;-83
2023/04/26 04:27:29;;;;;;;25.17;12.85;;;;;;;2.45;100.00;-18093.75;5010226;28;20057;-82
2023/04/26 04:29:54;;;;;;;26.25;13.85;;;;;;;2.53;100.00;-18095.84;5019631;28;20050;-81
2023/04/26 04:32:22;;;;;;;26.20;12.50;;;;;;;2.54;100.00;-18095.97;5002094;28;20447;-82
2023/04/26 04:34:47;;;;;;;25.98;14.45;;;;;;;2.51;100.00;-18095.16;5004625;28;20668;-82
2023/04/26 04:37:13;;;;;;;21.30;12.45;;;;;;;2.56;100.00;-18096.53;5003466;28;20042;-81
2023/04/26 04:39:38;;;;;;;31.25;12.40;;;;;;;2.52;100.00;-18095.56;5001078;28;20097;-83
2023/04/26 04:42:03;;;;;;;25.42;13.18;;;;;;;2.52;100.00;-18095.41;5007461;28;20124;-82
2023/04/26 04:44:29;;;;;;;26.75;13.60;;;;;;;2.51;100.00;-18095.28;5001765;28;20211;-82
2023/04/26 04:46:55;;;;;;;22.08;12.63;;;;;;;2.72;100.00;-18101.09;5000487;28;20045;-83
2023/04/26 04:49:20;;;;;;;25.88;14.38;;;;;;;2.59;100.00;-18097.34;4998992;28;20075;-82
2023/04/26 04:51:46;;;;;;;22.20;12.95;;;;;;;2.48;100.00;-18094.59;4995427;28;20156;-82
2023/04/26 04:54:13;;;;;;;22.23;11.70;;;;;;;2.40;100.00;-18092.25;5001543;28;21424;-84
2023/04/26 04:56:39;;;;;;;22.80;13.15;;;;;;;2.55;100.00;-18096.25;4998984;28;20286;-81
2023/04/26 04:59:04;;;;;;;26.60;14.70;;;;;;;2.47;100.00;-18094.31;5003252;28;20033;-82
2023/04/26 05:01:33;;;;;;;21.98;11.98;;;;;;;2.52;100.00;-18095.56;5003996;28;20034;-82
2023/04/26 05:03:59;;;;;;;;;;;;;;;2.55;100.00;-18096.25;5004245;28;20056;-80
2023/04/26 05:06:26;;;;;;;24.10;13.70;;;;;;;2.58;100.00;-18097.06;5002894;28;19921;-82
2023/04/26 05:08:53;;;;;;;26.33;10.90;;;;;;;2.58;100.00;-18097.22;5003926;28;20061;-81
2023/04/26 05:11:18;;;;;;;26.13;12.90;;;;;;;2.64;100.00;-18098.72;5004169;28;20552;-81
2023/04/26 05:13:45;;;;;;;25.85;14.65;;;;;;;2.77;100.00;-18102.19;5015238;28;20038;-83
2023/04/26 05:16:11;;;;;;;25.95;11.20;;;;;;;2.81;100.00;-18103.44;5015815;28;20049;-80
2023/04/26 05:18:36;;;;;;;23.00;10.27;;;;;;;2.88;100.00;-18105.38;5016245;28;20053;-83
2023/04/26 05:21:01;;;;;;;24.23;11.23;;;;;;;2.94;100.00;-18106.91;5014175;28;20119;-82
2023/04/26 05:23:27;;;;;;;24.60;12.07;;;;;;;2.95;100.00;-18107.16;5013919;28;20504;-81
2023/04/26 05:25:52;;;;;;;24.75;11.95;;;;;;;3.02;100.00;-18108.97;5017748;28;20983;-81
2023/04/26 05:28:17;;;;;;;27.48;14.07;;;;;;;3.12;100.00;-18111.72;5014057;28;20041;-82
2023/04/26 05:30:43;;;;;;;25.42;12.15;;;;;;;3.19;100.00;-18113.66;5013310;28;20112;-81
2023/04/26 05:33:08;;;;;;;27.02;11.50;;;;;;;3.28;100.00;-18116.16;5016039;28;20039;-84
2023/04/26 05:35:34;;;;;;;36.95;17.02;;;;;;;3.30;100.00;-18116.72;5007320;28;20567;-81
2023/04/26 05:37:59;;;;;;;36.50;14.40;;;;;;;3.51;100.00;-18122.22;5009733;28;20121;-82
2023/04/26 05:40:25;;;;;;;31.73;14.38;;;;;;;3.53;100.00;-18122.78;5029333;28;20046;-81
2023/04/26 05:42:50;;;;;;;34.92;16.73;;;;;;;3.55;100.00;-18123.47;5010347;28;20054;-81
2023/04/26 05:45:16;;;;;;;37.35;17.08;;;;;;;3.60;100.00;-18124.72;5013789;28;20156;-82
2023/04/26 05:47:41;;;;;;;23.13;10.45;;;;;;;3.61;100.00;-18125.13;5015549;28;20084;-81
2023/04/26 05:50:07;;;;;;;26.13;11.95;;;;;;;3.69;100.00;-18127.06;5016871;28;20058;-82
2023/04/26 05:52:33;;;;;;;28.73;12.63;;;;;;;3.78;100.00;-18129.69;5014787;28;20684;-80
2023/04/26 05:54:58;;;;;;;21.75;12.60;;;;;;;3.86;100.00;-18131.78;5014574;28;20031;-82
2023/04/26 05:57:23;;;;;;;27.05;12.68;;;;;;;3.95;100.00;-18134.13;5018066;28;20093;-83
2023/04/26 05:59:49;;;;;;;18.05;8.95;;;;;;;3.97;100.00;-18134.81;5012183;28;20048;-85
2023/04/26 06:02:14;;;;;;;17.27;8.98;;;;;;;4.09;100.00;-18138.00;5012665;28;20042;-82
2023/04/26 06:04:40;;;;;;;20.60;10.27;;;;;;;4.14;100.00;-18139.38;5013939;28;20520;-82
2023/04/26 06:07:06;;;;;;;22.17;9.80;;;;;;;4.24;100.00;-18142.13;5001995;28;20046;-83
2023/04/26 06:09:31;;;;;;;20.00;10.35;;;;;;;4.28;100.00;-18143.22;5001251;28;20046;-84
2023/04/26 06:11:56;;;;;;;20.67;10.45;;;;;;;4.31;100.00;-18143.94;5009653;28;20061;-84
2023/04/26 06:14:22;;;;;;;19.70;8.80;;;;;;;4.33;100.00;-18144.47;5008960;28;20045;-84
2023/04/26 06:16:47;;;;;;;13.75;6.93;;;;;;;4.38;100.00;-18145.88;5011843;28;20072;-84
2023/04/26 06:19:13;;;;;;;18.25;9.25;;;;;;;4.50;100.00;-18149.03;5011316;28;20057;-83
2023/04/26 06:21:38;;;;;;;16.65;7.90;;;;;;;4.56;100.00;-18150.69;5002055;28;20041;-83
2023/04/26 06:24:04;;;;;;;12.43;6.93;;;;;;;4.56;100.00;-18150.69;5006321;28;20046;-83
2023/04/26 06:26:30;;;;;;;14.77;7.10;;;;;;;4.67;100.00;-18153.59;5012917;28;20432;-81
2023/04/26 06:28:55;;;;;;;19.23;9.52;;;;;;;4.82;100.00;-18157.59;5008240;28;20045;-81
2023/04/26 06:31:21;;;;;;;12.70;7.10;;;;;;;4.85;100.00;-18158.44;5003794;28;20043;-82
2023/04/26 06:33:47;;;;;;;14.73;8.57;;;;;;;4.82;100.00;-18157.59;5007222;28;20037;-82
2023/04/26 06:36:12;;;;;;;15.30;9.13;;;;;;;4.81;100.00;-18157.31;5024691;28;20037;-82
2023/04/26 06:38:38;;;;;;;17.42;9.38;;;;;;;4.87;100.00;-18158.97;5007750;28;20057;-82
2023/04/26 06:41:03;;;;;;;15.75;8.45;;;;;;;4.85;100.00;-18158.56;5003561;28;20049;-82
2023/04/26 06:43:29;;;;;;;17.58;8.73;;;;;;;4.93;100.00;-18160.63;5010221;28;20144;-82
2023/04/26 06:45:54;;;;;;;17.27;9.15;;;;;;;4.98;100.00;-18162.03;5006626;28;20524;-82
2023/04/26 06:48:19;;;;;;;19.10;9.30;;;;;;;5.02;100.00;-18163.13;5007460;28;20088;-82
2023/04/26 06:50:45;;;;;;;17.15;8.68;;;;;;;5.01;100.00;-18162.84;5001176;28;20054;-84
2023/04/26 06:53:10;;;;;;;16.73;7.95;;;;;;;5.12;100.00;-18165.75;5022350;28;20125;-82
2023/04/26 06:55:36;;;;;;;17.58;9.38;;;;;;;5.20;100.00;-18167.94;5010704;28;20061;-83
2023/04/26 06:58:01;;;;;;;20.13;7.57;;;;;;;5.32;100.00;-18171.13;5005979;28;20046;-83
2023/04/26 07:00:27;;;;;;;16.05;8.05;;;;;;;5.31;100.00;-18170.84;5014041;28;20038;-83
2023/04/26 07:02:52;;;;;;;17.52;9.05;;;;;;;5.40;100.00;-18173.34;5010983;28;20042;-82
2023/04/26 07:05:18;;;;;;;16.00;7.85;;;;;;;5.51;100.00;-18176.22;5010700;28;20449;-82
2023/04/26 07:07:43;;;;;;;16.08;7.25;;;;;;;5.53;100.00;-18176.91;5011846;28;20232;-83
2023/04/26 07:10:09;;;;;;;17.35;7.85;;;;;;;5.66;100.00;-18180.38;5011539;28;20033;-81
2023/04/26 07:12:34;;;;;;;17.42;9.02;;;;;;;5.83;100.00;-18185.06;5009116;28;20049;-83
2023/04/26 07:15:00;;;;;;;15.60;8.07;;;;;;;5.96;100.00;-18188.50;5005501;28;20054;-82
2023/04/26 07:17:26;;;;;;;13.80;6.03;;;;;;;5.82;100.00;-18184.66;5009938;28;20041;-83
2023/04/26 07:19:51;;;;;;;12.13;4.35;;;;;;;5.81;100.00;-18184.38;5008973;28;20869;-83
2023/04/26 07:22:17;;;;;;;12.18;6.82;;;;;;;5.91;100.00;-18187.13;5006500;28;20620;-80
2023/04/26 07:24:42;;;;;;;12.95;6.57;;;;;;;6.02;100.00;-18190.16;5005878;28;20037;-81
2023/04/26 07:27:07;;;;;;;14.50;7.13;;;;;;;6.17;100.00;-18194.16;5000098;28;20069;-82
2023/04/26 07:29:33;;;;;;;18.25;6.80;;;;;;;6.34;100.00;-18198.72;5008927;28;20548;-82
2023/04/26 07:31:58;;;;;;;17.05;7.32;;;;;;;6.39;100.00;-18200.09;5006940;28;20048;-82
2023/04/26 07:34:24;;;;;;;14.23;6.85;;;;;;;6.66;100.00;-18207.28;5008390;28;20485;-83
2023/04/26 07:36:49;;;;;;;14.85;6.28;;;;;;;6.81;100.00;-18211.41;5006623;28;20048;-81
2023/04/26 07:39:15;;;;;;;11.90;4.57;;;;;;;6.87;100.00;-18213.06;5021539;28;20125;-82
2023/04/26 07:41:41;;;;;;;14.20;5.63;;;;;;;7.06;100.00;-18218.03;5022887;28;20035;-81
2023/04/26 07:44:06;;;;;;;13.27;6.80;;;;;;;7.11;100.00;-18219.41;5009846;28;20562;-82
2023/04/26 07:46:33;;;;;;;10.88;5.43;;;;;;;7.08;100.00;-18218.72;5009451;28;20483;-82
2023/04/26 07:48:59;;;;;;;11.75;5.28;;;;;;;7.12;100.00;-18219.81;5002403;28;20080;-82
2023/04/26 07:51:24;;;;;;;12.40;5.28;;;;;;;7.22;100.00;-18222.44;5004457;28;20072;-81
2023/04/26 07:53:49;;;;;;;9.88;5.20;;;;;;;7.28;100.00;-18223.94;5005167;28;20042;-80
2023/04/26 07:56:15;;;;;;;10.32;4.93;;;;;;;7.40;100.00;-18227.38;5005537;28;20374;-81
2023/04/26 07:58:40;;;;;;;11.77;4.90;;;;;;;7.29;100.00;-18224.22;5003066;28;20142;-82
2023/04/26 08:01:06;;;;;;;11.85;5.03;;;;;;;7.39;100.00;-18227.13;5007693;28;20097;-82
2023/04/26 08:03:31;;;;;;;15.20;5.05;;;;;;;7.49;100.00;-18229.59;5007722;28;20068;-82
2023/04/26 08:06:00;;;;;;;8.18;3.50;;;;;;;7.39;100.00;-18227.13;5008091;28;20125;-82
2023/04/26 08:08:25;;;;;;;10.00;3.90;;;;;;;7.38;100.00;-18226.84;5019347;28;20132;-82
2023/04/26 08:10:51;;;;;;;8.20;3.63;;;;;;;7.34;100.00;-18225.59;5005742;28;20109;-82
2023/04/26 08:13:16;;;;;;;10.02;4.30;;;;;;;7.40;100.00;-18227.25;5004780;28;20615;-82
2023/04/26 08:15:42;;;;;;;10.63;4.65;;;;;;;7.43;100.00;-18228.06;5005849;28;20034;-83
2023/04/26 08:18:07;;;;;;;12.95;5.47;;;;;;;7.42;100.00;-18227.94;5015730;28;20392;-83
2023/04/26 08:20:33;;;;;;;9.38;4.13;;;;;;;7.53;100.00;-18230.81;5001642;28;20092;-83
2023/04/26 08:22:58;;;;;;;8.00;4.35;;;;;;;7.55;100.00;-18231.38;5002913;28;20037;-82
2023/04/26 08:25:24;;;;;;;8.40;4.30;;;;;;;7.69;100.00;-18235.09;5008097;28;20522;-85
2023/04/26 08:27:51;;;;;;;9.05;3.35;;;;;;;7.65;100.00;-18234.00;5000133;28;20504;-82
2023/04/26 08:30:17;;;;;;;7.93;3.70;;;;;;;7.63;100.00;-18233.59;5014089;28;20038;-82
2023/04/26 08:32:43;;;;;;;8.25;3.72;;;;;;;7.64;100.00;-18233.72;5001858;28;20076;-81
2023/04/26 08:35:09;;;;;;;6.13;3.42;;;;;;;7.57;100.00;-18231.94;5007060;28;20069;-82
2023/04/26 08:37:35;;;;;;;5.95;2.72;;;;;;;7.77;100.00;-18237.16;5000342;28;20050;-82
2023/04/26 08:40:01;;;;;;;8.13;3.10;;;;;;;7.77;100.00;-18237.31;5005338;28;20053;-82
2023/04/26 08:42:27;;;;;;;8.85;3.10;;;;;;;7.77;100.00;-18237.31;5001430;28;20030;-82
2023/04/26 08:44:53;;;;;;;9.82;3.47;;;;;;;7.85;100.00;-18239.38;5010066;28;20124;-83
2023/04/26 08:47:30;;;;;;;7.93;3.60;;;;;;;7.93;100.00;-18241.44;5019378;28;20497;-82
2023/04/26 08:50:02;;;;;;;7.13;3.30;;;;;;;7.97;100.00;-18242.69;5004887;28;20049;-82
2023/04/26 08:52:30;;;;;;;12.00;4.63;;;;;;;8.05;100.00;-18244.88;5006342;28;20038;-83
2023/04/26 08:54:56;;;;;;;13.45;5.35;;;;;;;8.01;100.00;-18243.63;5002046;28;20045;-82
2023/04/26 08:57:23;;;;;;;6.97;2.90;;;;;;;7.93;100.00;-18241.44;5006891;28;20041;-83
2023/04/26 08:59:49;;;;;;;7.85;3.10;;;;;;;7.89;100.00;-18240.59;5000213;28;20118;-83
2023/04/26 09:02:20;;;;;;;22.58;6.13;;;;;;;8.05;100.00;-18244.75;4997781;28;20058;-83
2023/04/26 09:04:46;;;;;;;8.52;3.58;;;;;;;8.01;100.00;-18243.63;4999758;28;20428;-84
2023/04/26 09:07:20;;;;;;;13.25;4.10;;;;;;;8.02;100.00;-18243.91;4999890;28;20493;-83
2023/04/26 09:09:49;;;;;;;12.95;5.07;;;;;;;8.14;100.00;-18247.22;4994484;28;20053;-83
2023/04/26 09:12:16;;;;;;;;;;;;;;;8.12;100.00;-18246.66;5004337;28;20108;-83
2023/04/26 09:14:42;;;;;;;7.07;3.83;;;;;;;8.02;100.00;-18243.91;5005646;28;19917;-83
2023/04/26 09:17:33;;;;;;;9.52;4.70;;;;;;;8.06;100.00;-18245.03;4997934;28;20497;-83
2023/04/26 09:20:00;;;;;;;8.73;3.30;;;;;;;8.03;100.00;-18244.19;4995123;28;20085;-83
2023/04/26 09:22:36;;;;;;;8.88;3.95;;;;;;;8.16;100.00;-18247.78;4996634;28;20100;-83
2023/04/26 09:25:04;;;;;;;8.85;4.13;;;;;;;8.17;100.00;-18247.91;4995172;28;20104;-83
2023/04/26 09:27:44;;;;;;;6.60;3.30;;;;;;;8.21;100.00;-18249.16;4995418;28;20080;-83
2023/04/26 09:30:16;;;;;;;11.55;3.00;;;;;;;8.25;100.00;-18250.25;4994677;28;20073;-83
2023/04/26 09:32:53;;;;;;;10.75;3.20;;;;;;;8.40;100.00;-18254.25;4996156;28;20057;-83
2023/04/26 09:35:37;;;;;;;7.32;2.92;;;;;;;8.61;100.00;-18259.88;5001172;28;20553;-83
2023/04/26 09:38:11;;;;;;;6.13;2.67;;;;;;;8.74;100.00;-18263.47;5000448;28;20058;-83
2023/04/26 09:40:46;;;;;;;5.57;2.33;;;;;;;8.84;100.00;-18265.94;4999348;28;20034;-83
2023/04/26 09:43:17;;;;;;;5.63;2.53;;;;;;;8.78;100.00;-18264.56;4995132;28;20046;-84
2023/04/26 09:45:44;;;;;;;8.70;3.00;;;;;;;8.77;100.00;-18264.28;5000739;28;20065;-83
2023/04/26 09:48:17;;;;;;;4.68;2.45;;;;;;;8.79;100.00;-18264.84;4999623;28;20046;-84
2023/04/26 09:50:47;;;;;;;8.20;2.97;;;;;;;8.82;100.00;-18265.66;5001598;28;20557;-83
2023/04/26 09:53:25;;;;;;;7.18;2.65;;;;;;;8.91;100.00;-18268.00;4997232;28;20045;-84
2023/04/26 09:55:51;;;;;;;5.22;2.75;;;;;;;9.11;100.00;-18273.38;4999582;28;20045;-83
2023/04/26 09:58:17;;;;;;;7.15;2.70;;;;;;;9.05;100.00;-18271.72;4995677;28;20050;-84
2023/04/26 10:00:43;;;;;;;9.32;3.80;;;;;;;9.16;100.00;-18274.75;4995546;28;20111;-83
2023/04/26 10:03:08;;;;;;;6.95;2.83;;;;;;;9.12;100.00;-18273.66;5009332;28;20077;-83
2023/04/26 10:05:35;;;;;;;5.90;2.42;;;;;;;9.38;100.00;-18280.66;5008762;28;20667;-84
2023/04/26 10:08:02;;;;;;;6.53;2.30;;;;;;;9.31;100.00;-18278.59;5007280;28;20060;-83
2023/04/26 10:10:29;;;;;;;4.75;1.80;;;;;;;9.29;100.00;-18278.19;5005592;28;20034;-83
2023/04/26 10:12:54;;;;;;;5.13;1.92;;;;;;;9.40;100.00;-18281.22;5003297;28;20132;-83
2023/04/26 10:15:20;;;;;;;4.35;1.55;;;;;;;9.48;100.00;-18283.41;5006775;28;20571;-83
2023/04/26 10:17:45;;;;;;;4.82;1.42;;;;;;;9.35;92.17;-18279.84;5004219;28;20031;-84
2023/04/26 10:20:13;;;;;;;6.47;1.65;;;;;;;9.33;100.00;-18279.16;5001795;28;20130;-83
2023/04/26 10:22:48;;;;;;;5.88;1.35;;;;;;;9.25;100.00;-18277.09;5004245;28;20045;-83
2023/04/26 10:25:13;;;;;;;4.50;2.00;;;;;;;9.41;100.00;-18281.34;5028946;23;20046;-83
2023/04/26 10:27:41;;;;;;;5.93;2.30;;;;;;;9.29;100.00;-18278.19;5006807;28;20049;-83
2023/04/26 10:30:15;;;;;;;5.80;2.42;;;;;;;9.23;100.00;-18276.53;5013723;28;20061;-83
2023/04/26 10:32:55;;;;;;;6.05;2.50;;;;;;;9.17;100.00;-18274.88;5013586;28;20053;-83
2023/04/26 10:35:22;;;;;;;5.60;3.17;;;;;;;9.10;100.00;-18273.09;5010938;28;20038;-83
2023/04/26 10:38:05;;;;;;;7.65;4.43;;;;;;;8.95;100.00;-18269.09;5015543;28;20042;-83
2023/04/26 10:40:39;;;;;;;5.72;2.55;;;;;;;8.90;100.00;-18267.59;5015282;28;20042;-83
2023/04/26 10:43:10;;;;;;;5.40;2.70;;;;;;;8.94;100.00;-18268.69;5002484;28;20042;-83
2023/04/26 10:45:37;;;;;;;5.07;2.90;;;;;;;8.73;100.00;-18263.19;5012368;28;20045;-83
2023/04/26 10:48:18;;;;;;;6.32;3.28;;;;;;;8.63;100.00;-18260.31;5031057;28;20076;-83
2023/04/26 10:51:04;;;;;;;5.30;2.65;;;;;;;8.56;100.00;-18258.50;5017369;28;20604;-83
2023/04/26 10:53:52;;;;;;;7.45;2.70;;;;;;;8.74;100.00;-18263.47;5015501;28;20052;-83
2023/04/26 10:56:26;;;;;;;4.10;2.47;;;;;;;8.65;100.00;-18261.00;5004785;28;20050;-83
2023/04/26 10:59:11;;;;;;;8.65;3.85;;;;;;;8.70;100.00;-18262.38;4995274;28;20061;-83
2023/04/26 11:01:38;;;;;;;11.95;5.03;;;;;;;8.78;100.00;-18264.56;5015154;28;20117;-84
2023/04/26 11:04:09;;;;;;;10.43;4.72;;;;;;;8.74;100.00;-18263.47;5017938;28;20038;-83
2023/04/26 11:06:51;;;;;;;5.07;2.80;;;;;;;9.11;100.00;-18273.38;5010326;28;20034;-83
2023/04/26 11:09:32;;;;;;;7.72;3.00;;;;;;;9.34;100.00;-18279.44;5004922;28;20088;-83
2023/04/26 11:11:57;;;;;;;8.32;2.90;;;;;;;9.24;100.00;-18276.94;5005316;28;20038;-83
2023/04/26 11:14:24;;;;;;;5.63;2.90;;;;;;;9.71;100.00;-18289.59;5011997;28;20063;-83